sensor_id;sensor_type;location;lat;lon;timestamp;pressure;altitude;pressure_sealevel;temperature;humidity
43125;BME280;49182;50.788;7.318;2023-06-14T00:01:07;100566.63;;;14.36;65.62
43125;BME280;49182;50.788;7.318;2023-06-14T00:03:33;100563.78;;;14.30;65.70
43125;BME280;49182;50.788;7.318;2023-06-14T00:06:00;100556.44;;;14.24;66.00
43125;BME280;49182;50.788;7.318;2023-06-14T00:08:28;100559.41;;;14.21;66.00
43125;BME280;49182;50.788;7.318;2023-06-14T00:10:55;100571.69;;;14.22;66.49
43125;BME280;49182;50.788;7.318;2023-06-14T00:13:21;100569.53;;;14.17;66.76
43125;BME280;49182;50.788;7.318;2023-06-14T00:15:48;100566.53;;;14.12;66.25
43125;BME280;49182;50.788;7.318;2023-06-14T00:18:15;100566.16;;;14.07;66.54
43125;BME280;49182;50.788;7.318;2023-06-14T00:20:41;100570.25;;;14.01;66.32
43125;BME280;49182;50.788;7.318;2023-06-14T00:23:08;100573.59;;;14.03;66.60
43125;BME280;49182;50.788;7.318;2023-06-14T00:25:36;100573.09;;;14.00;66.91
43125;BME280;49182;50.788;7.318;2023-06-14T00:28:03;100568.22;;;13.95;66.56
43125;BME280;49182;50.788;7.318;2023-06-14T00:30:30;100572.06;;;13.93;66.69
43125;BME280;49182;50.788;7.318;2023-06-14T00:32:56;100577.84;;;13.88;67.25
43125;BME280;49182;50.788;7.318;2023-06-14T00:35:24;100565.00;;;13.84;67.32
43125;BME280;49182;50.788;7.318;2023-06-14T00:37:51;100559.97;;;13.72;67.80
43125;BME280;49182;50.788;7.318;2023-06-14T00:40:18;100565.13;;;13.74;67.54
43125;BME280;49182;50.788;7.318;2023-06-14T00:42:46;100569.09;;;13.70;67.60
43125;BME280;49182;50.788;7.318;2023-06-14T00:45:12;100578.34;;;13.66;67.44
43125;BME280;49182;50.788;7.318;2023-06-14T00:47:41;100559.03;;;13.56;67.75
43125;BME280;49182;50.788;7.318;2023-06-14T00:50:09;100564.34;;;13.56;67.91
43125;BME280;49182;50.788;7.318;2023-06-14T00:52:36;100572.66;;;13.61;68.37
43125;BME280;49182;50.788;7.318;2023-06-14T00:55:03;100575.25;;;13.53;68.80
43125;BME280;49182;50.788;7.318;2023-06-14T00:57:30;100580.19;;;13.48;69.20
43125;BME280;49182;50.788;7.318;2023-06-14T00:59:58;100579.75;;;13.34;69.02
43125;BME280;49182;50.788;7.318;2023-06-14T01:02:25;100586.72;;;13.35;69.14
43125;BME280;49182;50.788;7.318;2023-06-14T01:04:52;100589.84;;;13.31;68.92
43125;BME280;49182;50.788;7.318;2023-06-14T01:07:32;100586.34;;;13.30;69.04
43125;BME280;49182;50.788;7.318;2023-06-14T01:10:13;100600.59;;;13.29;69.25
43125;BME280;49182;50.788;7.318;2023-06-14T01:12:50;100595.06;;;13.23;69.11
43125;BME280;49182;50.788;7.318;2023-06-14T01:15:20;100601.66;;;13.19;68.96
43125;BME280;49182;50.788;7.318;2023-06-14T01:17:49;100597.47;;;13.16;69.53
43125;BME280;49182;50.788;7.318;2023-06-14T01:20:16;100600.28;;;13.15;69.57
43125;BME280;49182;50.788;7.318;2023-06-14T01:22:50;100555.84;;;12.81;69.53
43125;BME280;49182;50.788;7.318;2023-06-14T01:25:17;100602.81;;;13.07;69.83
43125;BME280;49182;50.788;7.318;2023-06-14T01:27:44;100604.94;;;13.03;69.95
43125;BME280;49182;50.788;7.318;2023-06-14T01:30:11;100607.75;;;13.02;70.47
43125;BME280;49182;50.788;7.318;2023-06-14T01:32:39;100599.25;;;12.98;70.72
43125;BME280;49182;50.788;7.318;2023-06-14T01:35:06;100601.53;;;12.93;71.25
43125;BME280;49182;50.788;7.318;2023-06-14T01:37:34;100603.78;;;12.88;71.52
43125;BME280;49182;50.788;7.318;2023-06-14T01:40:04;100609.81;;;12.80;71.80
43125;BME280;49182;50.788;7.318;2023-06-14T01:42:32;100606.09;;;12.73;71.80
43125;BME280;49182;50.788;7.318;2023-06-14T01:45:00;100602.94;;;12.70;72.62
43125;BME280;49182;50.788;7.318;2023-06-14T01:47:28;100602.53;;;12.65;72.38
43125;BME280;49182;50.788;7.318;2023-06-14T01:49:55;100608.25;;;12.60;72.53
43125;BME280;49182;50.788;7.318;2023-06-14T01:52:22;100603.28;;;12.57;73.06
43125;BME280;49182;50.788;7.318;2023-06-14T01:54:49;100600.38;;;12.50;73.13
43125;BME280;49182;50.788;7.318;2023-06-14T01:57:16;100603.75;;;12.43;73.28
43125;BME280;49182;50.788;7.318;2023-06-14T01:59:43;100604.47;;;12.35;73.47
43125;BME280;49182;50.788;7.318;2023-06-14T02:02:10;100609.50;;;12.29;73.37
43125;BME280;49182;50.788;7.318;2023-06-14T02:04:36;100612.06;;;12.21;73.76
43125;BME280;49182;50.788;7.318;2023-06-14T02:07:03;100609.31;;;12.12;74.27
43125;BME280;49182;50.788;7.318;2023-06-14T02:09:30;100607.22;;;12.06;74.36
43125;BME280;49182;50.788;7.318;2023-06-14T02:11:56;100611.28;;;12.01;74.56
43125;BME280;49182;50.788;7.318;2023-06-14T02:14:24;100616.31;;;11.94;74.63
43125;BME280;49182;50.788;7.318;2023-06-14T02:16:51;100614.13;;;11.90;74.75
43125;BME280;49182;50.788;7.318;2023-06-14T02:19:18;100612.56;;;11.87;75.34
43125;BME280;49182;50.788;7.318;2023-06-14T02:21:46;100605.34;;;11.70;75.31
43125;BME280;49182;50.788;7.318;2023-06-14T02:24:13;100616.22;;;11.77;75.49
43125;BME280;49182;50.788;7.318;2023-06-14T02:26:40;100616.50;;;11.73;76.32
43125;BME280;49182;50.788;7.318;2023-06-14T02:29:07;100615.78;;;11.71;76.63
43125;BME280;49182;50.788;7.318;2023-06-14T02:31:37;100615.38;;;11.66;76.56
43125;BME280;49182;50.788;7.318;2023-06-14T02:34:04;100618.16;;;11.65;76.72
43125;BME280;49182;50.788;7.318;2023-06-14T02:36:30;100607.28;;;11.49;76.99
43125;BME280;49182;50.788;7.318;2023-06-14T02:38:59;100622.59;;;11.55;77.41
43125;BME280;49182;50.788;7.318;2023-06-14T02:41:26;100624.69;;;11.51;77.29
43125;BME280;49182;50.788;7.318;2023-06-14T02:43:53;100606.47;;;11.39;77.52
43125;BME280;49182;50.788;7.318;2023-06-14T02:46:19;100618.16;;;11.46;77.37
43125;BME280;49182;50.788;7.318;2023-06-14T02:48:50;100626.22;;;11.44;77.60
43125;BME280;49182;50.788;7.318;2023-06-14T02:51:16;100621.06;;;11.43;77.58
43125;BME280;49182;50.788;7.318;2023-06-14T02:53:43;100621.38;;;11.40;77.45
43125;BME280;49182;50.788;7.318;2023-06-14T02:56:10;100625.94;;;11.38;77.52
43125;BME280;49182;50.788;7.318;2023-06-14T02:58:37;100623.44;;;11.36;77.55
43125;BME280;49182;50.788;7.318;2023-06-14T03:01:04;100624.69;;;11.32;77.63
43125;BME280;49182;50.788;7.318;2023-06-14T03:03:32;100628.19;;;11.32;77.67
43125;BME280;49182;50.788;7.318;2023-06-14T03:06:00;100627.63;;;11.29;77.90
43125;BME280;49182;50.788;7.318;2023-06-14T03:08:27;100629.56;;;11.27;77.72
43125;BME280;49182;50.788;7.318;2023-06-14T03:10:56;100638.47;;;11.26;77.73
43125;BME280;49182;50.788;7.318;2023-06-14T03:13:24;100634.44;;;11.22;77.74
43125;BME280;49182;50.788;7.318;2023-06-14T03:15:51;100634.56;;;11.20;77.73
43125;BME280;49182;50.788;7.318;2023-06-14T03:18:19;100645.28;;;11.19;78.18
43125;BME280;49182;50.788;7.318;2023-06-14T03:20:46;100649.03;;;11.16;77.99
43125;BME280;49182;50.788;7.318;2023-06-14T03:23:14;100647.38;;;11.15;78.10
43125;BME280;49182;50.788;7.318;2023-06-14T03:25:40;100644.84;;;11.14;78.13
43125;BME280;49182;50.788;7.318;2023-06-14T03:28:08;100650.97;;;11.14;78.47
43125;BME280;49182;50.788;7.318;2023-06-14T03:30:34;100641.66;;;11.10;78.41
43125;BME280;49182;50.788;7.318;2023-06-14T03:33:02;100647.63;;;11.12;78.57
43125;BME280;49182;50.788;7.318;2023-06-14T03:35:29;100661.81;;;11.11;78.61
43125;BME280;49182;50.788;7.318;2023-06-14T03:37:56;100658.34;;;11.11;78.79
43125;BME280;49182;50.788;7.318;2023-06-14T03:40:25;100655.13;;;11.07;79.13
43125;BME280;49182;50.788;7.318;2023-06-14T03:42:53;100650.97;;;11.05;79.07
43125;BME280;49182;50.788;7.318;2023-06-14T03:45:21;100667.50;;;11.07;79.56
43125;BME280;49182;50.788;7.318;2023-06-14T03:47:47;100664.03;;;11.06;79.39
43125;BME280;49182;50.788;7.318;2023-06-14T03:50:15;100663.91;;;11.08;79.72
43125;BME280;49182;50.788;7.318;2023-06-14T03:52:42;100668.22;;;11.09;79.91
43125;BME280;49182;50.788;7.318;2023-06-14T03:55:09;100670.16;;;11.07;79.84
43125;BME280;49182;50.788;7.318;2023-06-14T03:57:41;100672.78;;;11.07;79.92
43125;BME280;49182;50.788;7.318;2023-06-14T04:00:13;100673.63;;;11.07;79.83
43125;BME280;49182;50.788;7.318;2023-06-14T04:02:40;100673.38;;;11.10;79.96
43125;BME280;49182;50.788;7.318;2023-06-14T04:05:09;100676.00;;;11.10;80.26
43125;BME280;49182;50.788;7.318;2023-06-14T04:07:38;100683.09;;;11.10;80.34
43125;BME280;49182;50.788;7.318;2023-06-14T04:10:05;100675.56;;;11.05;80.36
43125;BME280;49182;50.788;7.318;2023-06-14T04:12:32;100684.50;;;11.14;80.64
43125;BME280;49182;50.788;7.318;2023-06-14T04:15:00;100682.94;;;11.11;80.75
43125;BME280;49182;50.788;7.318;2023-06-14T04:17:46;100687.97;;;11.14;80.87
43125;BME280;49182;50.788;7.318;2023-06-14T04:20:13;100697.47;;;11.26;81.25
43125;BME280;49182;50.788;7.318;2023-06-14T04:22:40;100702.06;;;11.34;81.19
43125;BME280;49182;50.788;7.318;2023-06-14T04:25:07;100707.78;;;11.58;81.49
43125;BME280;49182;50.788;7.318;2023-06-14T04:27:34;100705.84;;;11.99;80.71
43125;BME280;49182;50.788;7.318;2023-06-14T04:30:04;100708.97;;;12.41;79.24
43125;BME280;49182;50.788;7.318;2023-06-14T04:32:36;100723.44;;;12.93;77.76
43125;BME280;49182;50.788;7.318;2023-06-14T04:35:03;100713.19;;;13.35;75.43
43125;BME280;49182;50.788;7.318;2023-06-14T04:37:31;100717.75;;;13.78;73.64
43125;BME280;49182;50.788;7.318;2023-06-14T04:39:58;100715.25;;;14.20;72.61
43125;BME280;49182;50.788;7.318;2023-06-14T04:42:25;100716.03;;;14.56;71.21
43125;BME280;49182;50.788;7.318;2023-06-14T04:44:52;100722.53;;;14.95;69.67
43125;BME280;49182;50.788;7.318;2023-06-14T04:47:20;100723.28;;;15.14;67.90
43125;BME280;49182;50.788;7.318;2023-06-14T04:49:47;100730.31;;;15.23;66.16
43125;BME280;49182;50.788;7.318;2023-06-14T04:52:13;100727.50;;;15.24;65.69
43125;BME280;49182;50.788;7.318;2023-06-14T04:54:43;100727.63;;;15.23;66.38
43125;BME280;49182;50.788;7.318;2023-06-14T04:57:13;100730.44;;;15.21;66.63
43125;BME280;49182;50.788;7.318;2023-06-14T04:59:41;100731.25;;;15.14;66.73
43125;BME280;49182;50.788;7.318;2023-06-14T05:02:07;100731.25;;;15.06;66.85
43125;BME280;49182;50.788;7.318;2023-06-14T05:04:35;100732.53;;;15.02;66.37
43125;BME280;49182;50.788;7.318;2023-06-14T05:07:02;100729.53;;;14.96;66.44
43125;BME280;49182;50.788;7.318;2023-06-14T05:09:29;100729.88;;;14.93;66.82
43125;BME280;49182;50.788;7.318;2023-06-14T05:11:55;100730.66;;;14.94;67.25
43125;BME280;49182;50.788;7.318;2023-06-14T05:14:22;100726.19;;;14.94;67.65
43125;BME280;49182;50.788;7.318;2023-06-14T05:16:50;100724.22;;;14.96;67.32
43125;BME280;49182;50.788;7.318;2023-06-14T05:19:16;100730.22;;;14.98;67.43
43125;BME280;49182;50.788;7.318;2023-06-14T05:21:44;100728.25;;;15.09;67.23
43125;BME280;49182;50.788;7.318;2023-06-14T05:24:11;100733.91;;;15.14;66.50
43125;BME280;49182;50.788;7.318;2023-06-14T05:26:38;100731.94;;;15.16;67.43
43125;BME280;49182;50.788;7.318;2023-06-14T05:29:04;100734.94;;;15.21;67.34
43125;BME280;49182;50.788;7.318;2023-06-14T05:31:31;100726.81;;;15.22;67.27
43125;BME280;49182;50.788;7.318;2023-06-14T05:33:58;100739.47;;;15.28;66.93
43125;BME280;49182;50.788;7.318;2023-06-14T05:36:25;100733.81;;;15.31;66.84
43125;BME280;49182;50.788;7.318;2023-06-14T05:38:53;100741.50;;;15.43;67.17
43125;BME280;49182;50.788;7.318;2023-06-14T05:41:20;100731.00;;;15.49;66.79
43125;BME280;49182;50.788;7.318;2023-06-14T05:43:46;100735.19;;;15.52;66.83
43125;BME280;49182;50.788;7.318;2023-06-14T05:46:13;100738.75;;;15.60;66.04
43125;BME280;49182;50.788;7.318;2023-06-14T05:48:40;100743.06;;;15.69;65.93
43125;BME280;49182;50.788;7.318;2023-06-14T05:51:06;100746.75;;;15.76;65.96
43125;BME280;49182;50.788;7.318;2023-06-14T05:53:33;100754.06;;;15.83;66.33
43125;BME280;49182;50.788;7.318;2023-06-14T05:56:01;100747.59;;;15.93;66.04
43125;BME280;49182;50.788;7.318;2023-06-14T05:58:28;100746.28;;;15.97;65.66
43125;BME280;49182;50.788;7.318;2023-06-14T06:00:54;100745.41;;;16.05;65.67
43125;BME280;49182;50.788;7.318;2023-06-14T06:03:21;100735.44;;;16.15;66.00
43125;BME280;49182;50.788;7.318;2023-06-14T06:05:48;100743.78;;;16.28;65.83
43125;BME280;49182;50.788;7.318;2023-06-14T06:08:15;100745.09;;;16.40;64.76
43125;BME280;49182;50.788;7.318;2023-06-14T06:10:41;100748.56;;;16.57;63.14
43125;BME280;49182;50.788;7.318;2023-06-14T06:13:11;100753.19;;;16.79;59.75
43125;BME280;49182;50.788;7.318;2023-06-14T06:15:38;100756.59;;;17.04;55.42
43125;BME280;49182;50.788;7.318;2023-06-14T06:18:05;100754.34;;;17.24;54.46
43125;BME280;49182;50.788;7.318;2023-06-14T06:20:32;100752.81;;;17.37;53.43
43125;BME280;49182;50.788;7.318;2023-06-14T06:22:59;100761.53;;;17.62;52.82
43125;BME280;49182;50.788;7.318;2023-06-14T06:25:26;100758.75;;;17.78;51.94
43125;BME280;49182;50.788;7.318;2023-06-14T06:27:53;100759.66;;;17.94;51.42
43125;BME280;49182;50.788;7.318;2023-06-14T06:30:22;100764.41;;;18.06;51.41
43125;BME280;49182;50.788;7.318;2023-06-14T06:32:48;100766.38;;;18.27;49.06
43125;BME280;49182;50.788;7.318;2023-06-14T06:35:15;100754.78;;;18.35;47.92
43125;BME280;49182;50.788;7.318;2023-06-14T06:37:43;100771.88;;;18.48;48.60
43125;BME280;49182;50.788;7.318;2023-06-14T06:40:10;100764.22;;;18.68;46.88
43125;BME280;49182;50.788;7.318;2023-06-14T06:42:37;100770.84;;;18.72;47.44
43125;BME280;49182;50.788;7.318;2023-06-14T06:45:05;100768.25;;;18.79;47.96
43125;BME280;49182;50.788;7.318;2023-06-14T06:47:33;100775.47;;;18.93;47.52
43125;BME280;49182;50.788;7.318;2023-06-14T06:50:00;100775.94;;;19.11;45.89
43125;BME280;49182;50.788;7.318;2023-06-14T06:52:26;100788.19;;;19.20;45.90
43125;BME280;49182;50.788;7.318;2023-06-14T06:54:53;100785.50;;;19.35;45.83
43125;BME280;49182;50.788;7.318;2023-06-14T06:57:20;100780.34;;;19.48;44.41
43125;BME280;49182;50.788;7.318;2023-06-14T06:59:48;100784.38;;;19.59;43.68
43125;BME280;49182;50.788;7.318;2023-06-14T07:02:14;100743.94;;;19.39;43.91
43125;BME280;49182;50.788;7.318;2023-06-14T07:04:43;100765.44;;;19.60;43.45
43125;BME280;49182;50.788;7.318;2023-06-14T07:07:09;100783.44;;;19.88;43.54
43125;BME280;49182;50.788;7.318;2023-06-14T07:09:36;100777.78;;;19.97;43.13
43125;BME280;49182;50.788;7.318;2023-06-14T07:12:04;100786.50;;;20.06;42.92
43125;BME280;49182;50.788;7.318;2023-06-14T07:14:30;100773.50;;;20.03;43.57
43125;BME280;49182;50.788;7.318;2023-06-14T07:16:57;100776.75;;;20.19;42.79
43125;BME280;49182;50.788;7.318;2023-06-14T07:19:24;100785.50;;;20.28;42.59
43125;BME280;49182;50.788;7.318;2023-06-14T07:21:52;100778.75;;;20.32;42.77
43125;BME280;49182;50.788;7.318;2023-06-14T07:24:20;100785.28;;;20.51;42.07
43125;BME280;49182;50.788;7.318;2023-06-14T07:26:46;100783.53;;;20.65;41.33
43125;BME280;49182;50.788;7.318;2023-06-14T07:29:14;100782.06;;;20.62;42.02
43125;BME280;49182;50.788;7.318;2023-06-14T07:31:40;100780.91;;;20.71;40.86
43125;BME280;49182;50.788;7.318;2023-06-14T07:34:07;100784.09;;;20.88;40.90
43125;BME280;49182;50.788;7.318;2023-06-14T07:36:34;100787.47;;;20.96;40.33
43125;BME280;49182;50.788;7.318;2023-06-14T07:39:02;100779.22;;;20.98;40.58
43125;BME280;49182;50.788;7.318;2023-06-14T07:41:28;100776.31;;;20.99;39.92
43125;BME280;49182;50.788;7.318;2023-06-14T07:43:55;100785.06;;;21.08;39.28
43125;BME280;49182;50.788;7.318;2023-06-14T07:46:22;100785.78;;;21.17;39.09
43125;BME280;49182;50.788;7.318;2023-06-14T07:48:49;100779.19;;;21.26;39.21
43125;BME280;49182;50.788;7.318;2023-06-14T07:51:16;100770.34;;;21.38;38.09
43125;BME280;49182;50.788;7.318;2023-06-14T07:53:42;100769.72;;;21.36;39.45
43125;BME280;49182;50.788;7.318;2023-06-14T07:56:10;100778.03;;;21.48;38.26
43125;BME280;49182;50.788;7.318;2023-06-14T07:58:37;100780.53;;;21.56;38.38
43125;BME280;49182;50.788;7.318;2023-06-14T08:01:04;100777.69;;;21.64;39.04
43125;BME280;49182;50.788;7.318;2023-06-14T08:03:30;100776.91;;;21.77;37.33
43125;BME280;49182;50.788;7.318;2023-06-14T08:05:57;100788.06;;;21.87;36.42
43125;BME280;49182;50.788;7.318;2023-06-14T08:08:24;100780.03;;;21.94;35.84
43125;BME280;49182;50.788;7.318;2023-06-14T08:10:51;100785.00;;;21.90;36.67
43125;BME280;49182;50.788;7.318;2023-06-14T08:13:19;100772.78;;;21.94;36.71
43125;BME280;49182;50.788;7.318;2023-06-14T08:15:45;100779.44;;;22.05;35.70
43125;BME280;49182;50.788;7.318;2023-06-14T08:18:12;100779.66;;;22.10;35.80
43125;BME280;49182;50.788;7.318;2023-06-14T08:20:39;100793.53;;;22.20;36.41
43125;BME280;49182;50.788;7.318;2023-06-14T08:23:05;100785.47;;;22.27;35.72
43125;BME280;49182;50.788;7.318;2023-06-14T08:25:32;100775.56;;;22.34;35.82
43125;BME280;49182;50.788;7.318;2023-06-14T08:27:59;100774.28;;;22.43;34.60
43125;BME280;49182;50.788;7.318;2023-06-14T08:30:27;100771.59;;;22.49;35.00
43125;BME280;49182;50.788;7.318;2023-06-14T08:32:53;100777.59;;;22.58;33.58
43125;BME280;49182;50.788;7.318;2023-06-14T08:35:36;100786.28;;;22.60;33.97
43125;BME280;49182;50.788;7.318;2023-06-14T08:38:02;100780.91;;;22.67;33.99
43125;BME280;49182;50.788;7.318;2023-06-14T08:40:30;100777.59;;;22.65;33.13
43125;BME280;49182;50.788;7.318;2023-06-14T08:42:57;100770.16;;;22.73;32.59
43125;BME280;49182;50.788;7.318;2023-06-14T08:45:24;100760.84;;;22.76;33.33
43125;BME280;49182;50.788;7.318;2023-06-14T08:47:55;100765.56;;;22.93;30.84
43125;BME280;49182;50.788;7.318;2023-06-14T08:50:22;100778.19;;;22.99;32.00
43125;BME280;49182;50.788;7.318;2023-06-14T08:52:56;100775.91;;;22.96;30.82
43125;BME280;49182;50.788;7.318;2023-06-14T08:55:23;100776.72;;;22.97;31.32
43125;BME280;49182;50.788;7.318;2023-06-14T08:57:50;100773.63;;;22.93;32.01
43125;BME280;49182;50.788;7.318;2023-06-14T09:00:18;100766.41;;;22.87;33.09
43125;BME280;49182;50.788;7.318;2023-06-14T09:02:45;100774.44;;;23.01;32.50
43125;BME280;49182;50.788;7.318;2023-06-14T09:05:14;100771.94;;;23.06;31.66
43125;BME280;49182;50.788;7.318;2023-06-14T09:07:40;100763.88;;;23.06;32.62
43125;BME280;49182;50.788;7.318;2023-06-14T09:10:08;100767.75;;;23.16;32.32
43125;BME280;49182;50.788;7.318;2023-06-14T09:12:35;100774.16;;;23.22;32.69
43125;BME280;49182;50.788;7.318;2023-06-14T09:15:02;100774.94;;;23.35;32.46
43125;BME280;49182;50.788;7.318;2023-06-14T09:17:29;100774.50;;;23.45;31.91
43125;BME280;49182;50.788;7.318;2023-06-14T09:19:56;100775.97;;;23.48;32.14
43125;BME280;49182;50.788;7.318;2023-06-14T09:22:24;100768.66;;;23.55;32.66
43125;BME280;49182;50.788;7.318;2023-06-14T09:24:50;100771.75;;;23.58;32.12
43125;BME280;49182;50.788;7.318;2023-06-14T09:27:17;100765.50;;;23.64;31.14
43125;BME280;49182;50.788;7.318;2023-06-14T09:29:44;100769.47;;;23.62;31.56
43125;BME280;49182;50.788;7.318;2023-06-14T09:32:10;100773.59;;;23.64;32.27
43125;BME280;49182;50.788;7.318;2023-06-14T09:34:37;100772.34;;;23.67;32.37
43125;BME280;49182;50.788;7.318;2023-06-14T09:37:04;100782.06;;;23.74;32.89
43125;BME280;49182;50.788;7.318;2023-06-14T09:39:33;100783.25;;;23.78;31.53
43125;BME280;49182;50.788;7.318;2023-06-14T09:42:00;100783.44;;;23.84;31.72
43125;BME280;49182;50.788;7.318;2023-06-14T09:44:26;100786.91;;;23.91;31.38
43125;BME280;49182;50.788;7.318;2023-06-14T09:46:53;100770.75;;;23.91;30.54
43125;BME280;49182;50.788;7.318;2023-06-14T09:49:22;100780.53;;;23.85;30.27
43125;BME280;49182;50.788;7.318;2023-06-14T09:51:51;100780.69;;;23.90;31.16
43125;BME280;49182;50.788;7.318;2023-06-14T09:54:22;100766.50;;;24.01;31.44
43125;BME280;49182;50.788;7.318;2023-06-14T09:56:51;100772.31;;;24.05;31.83
43125;BME280;49182;50.788;7.318;2023-06-14T09:59:19;100773.69;;;24.14;32.32
43125;BME280;49182;50.788;7.318;2023-06-14T10:01:48;100775.28;;;24.28;30.89
43125;BME280;49182;50.788;7.318;2023-06-14T10:04:19;100782.53;;;24.28;31.17
43125;BME280;49182;50.788;7.318;2023-06-14T10:06:50;100774.66;;;24.26;30.60
43125;BME280;49182;50.788;7.318;2023-06-14T10:09:17;100776.31;;;24.27;30.77
43125;BME280;49182;50.788;7.318;2023-06-14T10:11:44;100775.47;;;24.27;31.45
43125;BME280;49182;50.788;7.318;2023-06-14T10:14:13;100781.34;;;24.24;30.88
43125;BME280;49182;50.788;7.318;2023-06-14T10:16:45;100755.63;;;24.14;31.31
43125;BME280;49182;50.788;7.318;2023-06-14T10:19:19;100765.34;;;24.22;32.98
43125;BME280;49182;50.788;7.318;2023-06-14T10:21:55;100769.16;;;24.39;31.20
43125;BME280;49182;50.788;7.318;2023-06-14T10:24:28;100768.50;;;24.44;31.94
43125;BME280;49182;50.788;7.318;2023-06-14T10:26:57;100764.94;;;24.50;32.18
43125;BME280;49182;50.788;7.318;2023-06-14T10:29:27;100771.84;;;24.64;32.21
43125;BME280;49182;50.788;7.318;2023-06-14T10:31:57;100767.41;;;24.70;31.55
43125;BME280;49182;50.788;7.318;2023-06-14T10:34:24;100775.44;;;24.76;31.93
43125;BME280;49182;50.788;7.318;2023-06-14T10:37:02;100754.66;;;24.77;29.67
43125;BME280;49182;50.788;7.318;2023-06-14T10:39:30;100752.88;;;24.71;29.95
43125;BME280;49182;50.788;7.318;2023-06-14T10:41:57;100760.47;;;24.80;30.40
43125;BME280;49182;50.788;7.318;2023-06-14T10:44:39;100765.31;;;24.96;30.36
43125;BME280;49182;50.788;7.318;2023-06-14T10:47:07;100766.59;;;24.87;30.86
43125;BME280;49182;50.788;7.318;2023-06-14T10:49:39;100777.66;;;24.86;30.21
43125;BME280;49182;50.788;7.318;2023-06-14T10:52:08;100777.31;;;24.76;31.48
43125;BME280;49182;50.788;7.318;2023-06-14T10:54:35;100767.47;;;24.63;31.98
43125;BME280;49182;50.788;7.318;2023-06-14T10:57:01;100780.41;;;24.61;32.16
43125;BME280;49182;50.788;7.318;2023-06-14T10:59:28;100767.63;;;24.50;31.30
43125;BME280;49182;50.788;7.318;2023-06-14T11:02:03;100777.28;;;24.57;31.61
43125;BME280;49182;50.788;7.318;2023-06-14T11:04:47;100769.38;;;24.63;32.12
43125;BME280;49182;50.788;7.318;2023-06-14T11:07:27;100763.66;;;24.71;32.11
43125;BME280;49182;50.788;7.318;2023-06-14T11:10:06;100771.22;;;24.87;30.52
43125;BME280;49182;50.788;7.318;2023-06-14T11:12:37;100776.94;;;24.97;30.39
43125;BME280;49182;50.788;7.318;2023-06-14T11:15:06;100777.78;;;24.97;29.33
43125;BME280;49182;50.788;7.318;2023-06-14T11:17:34;100772.72;;;25.01;29.83
43125;BME280;49182;50.788;7.318;2023-06-14T11:20:08;100777.38;;;25.12;28.57
43125;BME280;49182;50.788;7.318;2023-06-14T11:22:39;100787.97;;;25.14;26.79
43125;BME280;49182;50.788;7.318;2023-06-14T11:25:08;100781.97;;;25.12;26.69
43125;BME280;49182;50.788;7.318;2023-06-14T11:27:34;100779.50;;;24.92;26.34
43125;BME280;49182;50.788;7.318;2023-06-14T11:30:01;100780.34;;;24.86;27.74
43125;BME280;49182;50.788;7.318;2023-06-14T11:32:28;100756.69;;;24.81;30.23
43125;BME280;49182;50.788;7.318;2023-06-14T11:34:59;100765.31;;;24.96;29.55
43125;BME280;49182;50.788;7.318;2023-06-14T11:37:25;100772.28;;;25.04;30.48
43125;BME280;49182;50.788;7.318;2023-06-14T11:39:55;100767.16;;;25.14;30.67
43125;BME280;49182;50.788;7.318;2023-06-14T11:42:22;100780.31;;;25.29;30.35
43125;BME280;49182;50.788;7.318;2023-06-14T11:44:49;100774.78;;;25.24;30.38
43125;BME280;49182;50.788;7.318;2023-06-14T11:47:19;100769.50;;;25.29;29.60
43125;BME280;49182;50.788;7.318;2023-06-14T11:49:46;100780.09;;;25.30;30.82
43125;BME280;49182;50.788;7.318;2023-06-14T11:52:14;100776.72;;;25.35;29.08
43125;BME280;49182;50.788;7.318;2023-06-14T11:54:41;100778.72;;;25.39;28.61
43125;BME280;49182;50.788;7.318;2023-06-14T11:57:08;100784.00;;;25.34;29.80
43125;BME280;49182;50.788;7.318;2023-06-14T11:59:38;100762.97;;;25.36;29.72
43125;BME280;49182;50.788;7.318;2023-06-14T12:02:05;100762.63;;;25.45;29.58
43125;BME280;49182;50.788;7.318;2023-06-14T12:04:32;100786.84;;;25.58;29.78
43125;BME280;49182;50.788;7.318;2023-06-14T12:07:08;100773.31;;;25.58;29.50
43125;BME280;49182;50.788;7.318;2023-06-14T12:09:36;100783.00;;;25.65;29.21
43125;BME280;49182;50.788;7.318;2023-06-14T12:12:03;100792.03;;;25.59;29.37
43125;BME280;49182;50.788;7.318;2023-06-14T12:14:30;100768.88;;;25.63;29.38
43125;BME280;49182;50.788;7.318;2023-06-14T12:17:04;100782.00;;;25.78;28.36
43125;BME280;49182;50.788;7.318;2023-06-14T12:19:31;100776.09;;;25.81;28.64
43125;BME280;49182;50.788;7.318;2023-06-14T12:21:59;100783.47;;;25.92;28.36
43125;BME280;49182;50.788;7.318;2023-06-14T12:24:27;100760.50;;;25.95;28.61
43125;BME280;49182;50.788;7.318;2023-06-14T12:26:57;100787.72;;;26.11;29.19
43125;BME280;49182;50.788;7.318;2023-06-14T12:29:24;100782.66;;;26.03;29.30
43125;BME280;49182;50.788;7.318;2023-06-14T12:31:51;100773.50;;;26.04;29.00
43125;BME280;49182;50.788;7.318;2023-06-14T12:34:17;100777.50;;;26.13;29.18
43125;BME280;49182;50.788;7.318;2023-06-14T12:36:44;100782.56;;;26.10;29.05
43125;BME280;49182;50.788;7.318;2023-06-14T12:39:12;100788.09;;;26.15;28.95
43125;BME280;49182;50.788;7.318;2023-06-14T12:41:38;100787.31;;;26.26;28.62
43125;BME280;49182;50.788;7.318;2023-06-14T12:44:06;100762.34;;;26.24;28.53
43125;BME280;49182;50.788;7.318;2023-06-14T12:46:33;100763.06;;;26.31;29.74
43125;BME280;49182;50.788;7.318;2023-06-14T12:49:00;100776.16;;;26.46;28.47
43125;BME280;49182;50.788;7.318;2023-06-14T12:51:27;100794.41;;;26.62;28.70
43125;BME280;49182;50.788;7.318;2023-06-14T12:53:54;100778.16;;;26.50;28.60